Time;durP1;ratioP1;P1;durP2;ratioP2;P2;SDS_P1;SDS_P2;PMS_P1;PMS_P2;Temp;Humidity;BMP_temperature;BMP_pressure;BME280_temperature;BME280_humidity;BME280_pressure;Samples;Min_cycle;Max_cycle;Signal;HPM_P1;HPM_P2
2022/08/25 00:00:35;;;;;;;5.10;3.45;;;;;;;19.45;99.05;98802.66;5010384;28;20120;-57
2022/08/25 00:03:00;;;;;;;6.00;2.63;;;;;;;19.41;99.54;98800.69;5013475;28;20076;-59
2022/08/25 00:05:27;;;;;;;8.30;3.22;;;;;;;19.36;100.00;98804.22;5008894;28;20021;-57
2022/08/25 00:07:53;;;;;;;3.70;2.70;;;;;;;19.32;100.00;98799.53;5010146;28;20040;-61
2022/08/25 00:10:19;;;;;;;4.25;3.08;;;;;;;19.33;100.00;98801.16;5009130;28;20033;-62
2022/08/25 00:12:45;;;;;;;5.57;3.03;;;;;;;19.27;100.00;98795.63;5007488;28;20116;-57
2022/08/25 00:15:10;;;;;;;5.13;3.55;;;;;;;19.26;100.00;98801.41;5018551;28;20151;-59
2022/08/25 00:17:35;;;;;;;6.13;3.17;;;;;;;19.21;100.00;98796.69;4999075;28;20022;-60
2022/08/25 00:20:01;;;;;;;4.30;3.10;;;;;;;19.19;100.00;98790.63;5006917;28;20492;-58
2022/08/25 00:22:26;;;;;;;3.45;2.72;;;;;;;19.18;100.00;98786.25;5014168;28;20451;-58
2022/08/25 00:24:51;;;;;;;7.97;3.30;;;;;;;19.18;100.00;98785.41;5017466;28;20049;-58
2022/08/25 00:27:17;;;;;;;5.18;3.20;;;;;;;19.14;100.00;98787.84;5019528;28;20079;-57
2022/08/25 00:29:42;;;;;;;5.95;2.90;;;;;;;19.07;100.00;98780.91;5010157;28;20021;-57
2022/08/25 00:32:08;;;;;;;5.70;3.38;;;;;;;19.00;100.00;98787.44;5021126;28;20032;-57
2022/08/25 00:34:36;;;;;;;5.22;3.45;;;;;;;19.03;100.00;98786.91;5019823;28;20067;-60
2022/08/25 00:37:05;;;;;;;7.53;3.63;;;;;;;19.03;100.00;98788.81;5001017;28;20384;-58
2022/08/25 00:39:31;;;;;;;4.25;3.22;;;;;;;19.04;100.00;98799.53;5007479;28;20030;-58
2022/08/25 00:41:58;;;;;;;4.22;3.45;;;;;;;19.06;100.00;98804.75;5016099;28;20067;-58
2022/08/25 00:44:27;;;;;;;5.25;4.00;;;;;;;19.07;100.00;98787.22;5011467;28;20120;-58
2022/08/25 00:46:55;;;;;;;;;;;;;;;19.13;100.00;98799.06;5000529;28;20065;-57
2022/08/25 00:49:32;;;;;;;5.05;3.20;;;;;;;19.12;100.00;98797.41;5004968;28;20296;-59
2022/08/25 00:51:59;;;;;;;4.45;3.30;;;;;;;19.14;100.00;98800.72;5003256;28;20083;-58
2022/08/25 00:54:36;;;;;;;7.22;3.80;;;;;;;19.15;100.00;98795.00;5007245;28;20128;-58
2022/08/25 00:57:04;;;;;;;6.57;3.90;;;;;;;19.17;100.00;98802.94;5007045;28;20449;-58
2022/08/25 00:59:31;;;;;;;5.28;2.95;;;;;;;19.26;100.00;98804.13;5008580;28;20067;-58
2022/08/25 01:01:57;;;;;;;7.25;3.70;;;;;;;19.19;100.00;98798.84;5006175;28;20033;-59
2022/08/25 01:04:24;;;;;;;5.38;3.47;;;;;;;19.15;100.00;98805.09;5006056;28;20182;-59
2022/08/25 01:06:50;;;;;;;5.13;3.30;;;;;;;19.11;100.00;98798.50;5005345;28;20136;-59
2022/08/25 01:09:17;;;;;;;5.28;3.33;;;;;;;19.06;100.00;98804.75;5010712;28;20128;-59
2022/08/25 01:11:44;;;;;;;5.25;3.22;;;;;;;19.01;100.00;98794.56;5007022;28;20033;-59
2022/08/25 01:14:13;;;;;;;5.85;3.42;;;;;;;18.98;100.00;98794.25;5007945;28;20499;-59
2022/08/25 01:16:39;;;;;;;6.90;3.75;;;;;;;18.98;100.00;98789.59;5004791;28;20064;-59
2022/08/25 01:19:06;;;;;;;4.82;3.50;;;;;;;19.00;100.00;98792.09;5004055;28;20106;-59
2022/08/25 01:21:39;;;;;;;8.68;3.53;;;;;;;18.98;100.00;98795.06;5027895;28;20041;-59
2022/08/25 01:24:05;;;;;;;5.00;3.20;;;;;;;18.92;100.00;98795.31;5017001;28;20040;-58
2022/08/25 01:26:50;;;;;;;7.10;3.60;;;;;;;18.89;100.00;98782.94;5006708;28;20025;-59
2022/08/25 01:29:24;;;;;;;6.18;3.58;;;;;;;18.81;100.00;98780.63;5018172;28;20033;-59
2022/08/25 01:31:55;;;;;;;5.75;3.42;;;;;;;18.77;100.00;98771.28;5020068;28;20029;-59
2022/08/25 01:34:21;;;;;;;8.90;3.83;;;;;;;18.77;100.00;98780.31;5005297;28;20029;-59
2022/08/25 01:36:46;;;;;;;6.03;3.60;;;;;;;18.74;100.00;98778.06;5009617;28;20083;-59
2022/08/25 01:39:13;;;;;;;4.60;3.63;;;;;;;18.75;100.00;98768.78;5010002;28;20025;-59
2022/08/25 01:41:47;;;;;;;5.97;4.07;;;;;;;18.93;100.00;98775.84;5010365;28;20033;-59
2022/08/25 01:44:14;;;;;;;5.03;3.75;;;;;;;18.93;100.00;98773.09;5011786;28;20075;-59
2022/08/25 01:46:40;;;;;;;5.97;4.00;;;;;;;18.79;100.00;98775.41;5011620;28;20087;-59
2022/08/25 01:49:05;;;;;;;7.07;3.83;;;;;;;18.71;100.00;98777.78;5014997;28;20026;-59
2022/08/25 01:51:43;;;;;;;5.53;3.60;;;;;;;18.71;100.00;98781.34;5018604;28;20492;-59
2022/08/25 01:54:09;;;;;;;5.45;3.78;;;;;;;18.73;100.00;98778.31;5008644;28;20112;-59
2022/08/25 01:56:34;;;;;;;5.53;3.58;;;;;;;18.66;100.00;98785.94;5008293;28;20124;-59
2022/08/25 01:59:00;;;;;;;6.65;3.92;;;;;;;18.60;100.00;98782.28;5010661;28;20100;-59
2022/08/25 02:01:25;;;;;;;4.68;3.53;;;;;;;18.65;100.00;98776.84;5012217;28;20037;-59
2022/08/25 02:03:54;;;;;;;7.28;3.90;;;;;;;18.58;100.00;98777.06;5013392;28;20388;-59
2022/08/25 02:06:27;;;;;;;7.00;3.70;;;;;;;18.58;100.00;98781.72;5009654;28;20044;-62
2022/08/25 02:08:56;;;;;;;6.15;3.80;;;;;;;18.53;100.00;98777.00;5006472;28;20590;-59
2022/08/25 02:11:22;;;;;;;;;;;;;;;18.48;100.00;98771.47;5013111;28;20021;-59
2022/08/25 02:13:50;;;;;;;8.80;3.35;;;;;;;18.49;100.00;98770.38;5014261;28;20004;-59
2022/08/25 02:16:21;;;;;;;7.40;4.30;;;;;;;18.46;100.00;98773.63;5015864;28;20362;-60
2022/08/25 02:18:47;;;;;;;7.40;4.10;;;;;;;18.51;100.00;98770.13;5014256;28;20020;-60
2022/08/25 02:21:13;;;;;;;6.65;4.32;;;;;;;18.49;100.00;98773.13;5011542;28;20029;-59
2022/08/25 02:23:40;;;;;;;6.75;4.05;;;;;;;18.44;100.00;98775.78;5008512;28;20450;-59
2022/08/25 02:26:07;;;;;;;7.63;4.28;;;;;;;18.34;100.00;98784.72;5009115;28;20049;-60
2022/08/25 02:28:32;;;;;;;7.47;4.18;;;;;;;18.26;100.00;98787.06;5014500;28;20109;-59
2022/08/25 02:30:58;;;;;;;6.95;4.10;;;;;;;18.20;100.00;98785.34;5011729;28;20157;-60
2022/08/25 02:33:23;;;;;;;5.57;3.90;;;;;;;18.24;100.00;98789.25;5008966;28;20025;-59
2022/08/25 02:35:49;;;;;;;6.80;4.05;;;;;;;18.18;100.00;98785.59;5011450;28;20029;-62
2022/08/25 02:38:14;;;;;;;5.85;4.13;;;;;;;18.13;100.00;98786.38;5009423;28;20029;-60
2022/08/25 02:40:39;;;;;;;10.52;4.60;;;;;;;18.08;100.00;98791.78;5012090;28;20444;-59
2022/08/25 02:43:05;;;;;;;6.53;4.43;;;;;;;18.06;100.00;98788.47;5012536;28;20489;-59
2022/08/25 02:45:30;;;;;;;6.47;4.47;;;;;;;18.04;100.00;98779.66;5010711;28;20041;-59
2022/08/25 02:47:56;;;;;;;8.20;4.90;;;;;;;18.18;100.00;98777.38;5013162;28;20104;-62
2022/08/25 02:50:21;;;;;;;6.43;4.55;;;;;;;18.28;100.00;98772.03;5013481;28;20036;-59
2022/08/25 02:52:49;;;;;;;7.68;5.18;;;;;;;18.36;100.00;98768.84;5008660;28;20087;-59
2022/08/25 02:55:15;;;;;;;10.60;4.35;;;;;;;18.31;100.00;98765.22;5011941;28;20030;-59
2022/08/25 02:57:41;;;;;;;7.22;4.95;;;;;;;18.57;100.00;98771.84;5009314;28;20045;-59
2022/08/25 03:00:09;;;;;;;7.72;4.38;;;;;;;18.54;100.00;98769.63;5005677;28;20073;-60
2022/08/25 03:02:35;;;;;;;6.20;4.47;;;;;;;18.35;100.00;98774.59;5026975;28;20022;-59
2022/08/25 03:05:00;;;;;;;8.20;4.03;;;;;;;18.34;100.00;98779.25;5010840;28;20043;-59
2022/08/25 03:07:25;;;;;;;6.05;4.68;;;;;;;18.11;100.00;98771.28;5005581;28;20060;-60
2022/08/25 03:09:51;;;;;;;5.70;4.32;;;;;;;17.92;100.00;98776.19;5005129;28;20443;-59
2022/08/25 03:12:17;;;;;;;7.97;4.35;;;;;;;17.92;100.00;98776.19;5007276;28;20366;-59
2022/08/25 03:14:42;;;;;;;5.85;4.05;;;;;;;17.90;100.00;98765.50;5026878;28;20090;-59
2022/08/25 03:17:08;;;;;;;6.30;4.18;;;;;;;17.77;100.00;98770.50;5008141;28;20461;-59
2022/08/25 03:19:35;;;;;;;5.78;4.38;;;;;;;17.91;100.00;98774.56;5003664;28;20404;-59
2022/08/25 03:22:01;;;;;;;8.27;4.35;;;;;;;17.78;100.00;98778.44;5003889;28;20511;-59
2022/08/25 03:24:26;;;;;;;7.78;4.55;;;;;;;17.77;100.00;98773.22;5013424;28;20032;-60
2022/08/25 03:26:52;;;;;;;10.25;4.72;;;;;;;17.74;100.00;98772.66;5011941;28;20029;-62
2022/08/25 03:29:23;;;;;;;7.03;4.78;;;;;;;17.72;100.00;98776.72;5026938;28;20022;-65
2022/08/25 03:31:49;;;;;;;6.95;4.40;;;;;;;17.61;100.00;98775.72;5021398;28;20386;-62
2022/08/25 03:34:17;;;;;;;7.07;4.65;;;;;;;17.54;100.00;98766.84;5009359;28;20057;-60
2022/08/25 03:36:45;;;;;;;6.40;4.32;;;;;;;17.46;100.00;98772.75;5002138;28;20393;-59
2022/08/25 03:39:11;;;;;;;8.55;4.95;;;;;;;17.37;100.00;98774.22;5009231;28;20017;-59
2022/08/25 03:41:37;;;;;;;6.18;4.47;;;;;;;17.25;100.00;98772.41;5011251;28;20519;-64
2022/08/25 03:44:04;;;;;;;8.38;5.20;;;;;;;17.20;100.00;98780.50;5013423;28;20033;-64
2022/08/25 03:46:33;;;;;;;7.45;4.22;;;;;;;17.14;100.00;98784.25;5021591;28;20032;-59
2022/08/25 03:49:04;;;;;;;6.78;4.70;;;;;;;17.14;100.00;98784.25;5005645;28;20069;-58
2022/08/25 03:51:33;;;;;;;10.82;5.53;;;;;;;17.16;100.00;98778.50;5012878;28;20029;-57
2022/08/25 03:54:00;;;;;;;8.80;4.70;;;;;;;17.13;100.00;98779.00;5029197;28;20317;-57
2022/08/25 03:56:28;;;;;;;8.60;5.05;;;;;;;17.07;100.00;98780.84;5008064;28;20080;-57
2022/08/25 03:58:54;;;;;;;6.15;4.50;;;;;;;17.10;100.00;98780.34;5004278;28;20056;-57
2022/08/25 04:01:20;;;;;;;8.35;5.22;;;;;;;17.08;100.00;98771.53;4999063;28;20034;-57
2022/08/25 04:03:46;;;;;;;8.05;4.68;;;;;;;17.15;100.00;98780.44;5009319;28;20040;-57
2022/08/25 04:06:12;;;;;;;5.93;4.22;;;;;;;17.08;100.00;98774.28;5006334;28;20033;-58
2022/08/25 04:08:38;;;;;;;7.82;4.40;;;;;;;16.98;100.00;98774.94;5008885;28;20013;-61
2022/08/25 04:11:13;;;;;;;8.35;5.07;;;;;;;16.92;100.00;98770.44;5025473;28;20095;-60
2022/08/25 04:13:41;;;;;;;6.35;4.65;;;;;;;16.86;100.00;98764.06;5026029;28;20503;-62
2022/08/25 04:16:15;;;;;;;7.45;4.80;;;;;;;16.80;100.00;98766.97;5005931;28;20029;-63
2022/08/25 04:18:41;;;;;;;9.15;5.75;;;;;;;16.75;100.00;98764.91;5005564;28;20044;-62
2022/08/25 04:21:08;;;;;;;7.15;5.15;;;;;;;16.77;100.00;98764.69;5012722;28;20060;-62
2022/08/25 04:23:36;;;;;;;9.18;5.63;;;;;;;16.80;100.00;98759.59;5011244;28;20763;-67
2022/08/25 04:26:13;;;;;;;13.07;5.95;;;;;;;16.79;100.00;98763.41;5012201;28;20120;-62
2022/08/25 04:28:39;;;;;;;9.88;5.85;;;;;;;16.78;100.00;98760.91;5009815;28;20021;-62
2022/08/25 04:31:09;;;;;;;8.30;6.07;;;;;;;16.68;100.00;98761.50;5013426;28;20495;-62
2022/08/25 04:33:37;;;;;;;8.45;5.57;;;;;;;16.64;100.00;98765.81;5023580;28;20116;-63
2022/08/25 04:36:08;;;;;;;15.38;5.75;;;;;;;16.56;100.00;98763.47;5006103;28;20040;-63
2022/08/25 04:38:34;;;;;;;7.78;4.95;;;;;;;16.58;100.00;98769.50;5006295;28;20029;-62
2022/08/25 04:41:03;;;;;;;7.72;5.18;;;;;;;16.55;100.00;98768.06;5006780;28;20380;-65
2022/08/25 04:43:30;;;;;;;7.05;4.82;;;;;;;16.49;100.00;98760.03;5007562;28;20083;-63
2022/08/25 04:45:56;;;;;;;8.50;5.45;;;;;;;16.40;100.00;98760.44;5018267;28;20029;-64
2022/08/25 04:48:23;;;;;;;7.57;4.78;;;;;;;16.31;100.00;98767.31;5005627;28;20025;-65
2022/08/25 04:50:49;;;;;;;8.30;5.65;;;;;;;16.31;100.00;98761.03;4999072;28;20069;-64
2022/08/25 04:53:15;;;;;;;8.98;4.85;;;;;;;16.31;100.00;98767.31;5011870;28;20388;-64
2022/08/25 04:55:42;;;;;;;7.47;5.35;;;;;;;16.36;100.00;98775.63;5006734;28;20033;-65
2022/08/25 04:58:08;;;;;;;11.57;5.47;;;;;;;16.42;100.00;98774.66;5010027;28;20630;-64
2022/08/25 05:00:34;;;;;;;8.23;4.93;;;;;;;16.43;100.00;98775.50;5003646;28;20038;-64
2022/08/25 05:03:01;;;;;;;7.55;5.75;;;;;;;16.46;100.00;98777.75;5009307;28;20040;-64
2022/08/25 05:05:26;;;;;;;8.55;5.30;;;;;;;16.53;100.00;98781.16;5006257;28;20033;-64
2022/08/25 05:07:52;;;;;;;13.88;5.60;;;;;;;16.69;100.00;98785.03;5007833;28;20381;-64
2022/08/25 05:10:19;;;;;;;10.88;6.85;;;;;;;16.83;100.00;98777.41;5003832;28;20462;-64
2022/08/25 05:12:44;;;;;;;9.48;5.63;;;;;;;16.95;100.00;98782.78;5014055;28;20028;-64
2022/08/25 05:17:56;;;;;;;8.65;5.78;;;;;;;17.21;100.00;98781.34;5023898;28;20037;-65
2022/08/25 05:20:25;;;;;;;8.30;5.30;;;;;;;17.34;100.00;98774.72;5005007;28;20116;-65
2022/08/25 05:22:50;;;;;;;8.82;5.82;;;;;;;17.46;100.00;98781.78;5021793;28;20061;-65
2022/08/25 05:25:16;;;;;;;8.90;5.65;;;;;;;17.65;100.00;98778.78;5012616;28;20476;-65
2022/08/25 05:27:41;;;;;;;10.10;5.65;;;;;;;17.72;100.00;98779.44;5009906;28;20052;-65
2022/08/25 05:30:11;;;;;;;13.05;6.43;;;;;;;17.85;100.00;98770.09;5005438;28;20021;-64
2022/08/25 05:32:37;;;;;;;9.07;5.32;;;;;;;17.98;100.00;98764.25;5010826;28;20029;-65
2022/08/25 05:35:04;;;;;;;9.27;6.25;;;;;;;18.06;100.00;98760.25;5014647;28;20496;-65
2022/08/25 05:37:29;;;;;;;12.00;6.13;;;;;;;18.22;100.00;98759.38;5022309;28;20036;-64
2022/08/25 05:39:55;;;;;;;10.73;6.22;;;;;;;18.46;100.00;98759.13;5011287;28;20034;-64
2022/08/25 05:42:21;;;;;;;11.85;6.38;;;;;;;18.61;100.00;98767.50;5009942;28;20029;-64
2022/08/25 05:44:47;;;;;;;10.45;6.30;;;;;;;18.74;100.00;98769.03;5011890;28;20059;-64
2022/08/25 05:47:12;;;;;;;10.65;6.60;;;;;;;18.97;100.00;98765.19;5007988;28;20140;-64
2022/08/25 05:49:37;;;;;;;12.82;6.97;;;;;;;19.25;100.00;98758.56;5006982;28;20030;-64
2022/08/25 05:52:03;;;;;;;11.25;6.05;;;;;;;19.65;100.00;98751.78;5009165;28;20106;-64
2022/08/25 05:54:30;;;;;;;10.60;4.70;;;;;;;20.34;94.83;98746.13;5004132;28;20037;-65
2022/08/25 05:56:55;;;;;;;13.05;5.38;;;;;;;21.43;80.46;98748.03;5009051;28;20437;-64
2022/08/25 05:59:21;;;;;;;7.53;4.50;;;;;;;23.75;66.76;98742.00;4999204;28;20071;-64
2022/08/25 06:04:31;;;;;;;6.80;4.85;;;;;;;27.53;51.20;98737.41;5023640;28;21754;-60
2022/08/25 06:06:57;;;;;;;7.22;4.80;;;;;;;29.00;47.39;98727.19;5007250;28;20112;-59
2022/08/25 06:09:23;;;;;;;8.10;4.72;;;;;;;29.87;45.40;98727.13;5006430;28;20615;-60
2022/08/25 06:11:48;;;;;;;7.90;4.60;;;;;;;30.61;43.88;98731.41;5009145;28;20091;-59
2022/08/25 06:14:15;;;;;;;9.02;4.55;;;;;;;31.00;42.57;98723.75;5009109;28;20036;-59
2022/08/25 06:16:40;;;;;;;6.97;4.53;;;;;;;31.63;41.07;98726.50;5009644;28;20091;-58
2022/08/25 06:19:07;;;;;;;7.57;4.97;;;;;;;31.86;40.32;98721.31;5017500;28;20627;-59
2022/08/25 06:21:33;;;;;;;7.28;4.25;;;;;;;31.64;41.07;98728.94;5011664;28;20030;-59
2022/08/25 06:23:58;;;;;;;5.00;3.53;;;;;;;31.78;40.87;98722.22;5003521;28;20032;-59
2022/08/25 06:26:25;;;;;;;6.85;4.45;;;;;;;31.54;40.87;98731.34;5007973;28;20033;-59
2022/08/25 06:28:51;;;;;;;6.18;4.30;;;;;;;31.39;41.31;98730.84;5002683;28;20026;-59
2022/08/25 06:31:19;;;;;;;7.45;4.60;;;;;;;31.13;41.35;98733.03;5007453;28;20025;-59
2022/08/25 06:33:44;;;;;;;5.18;4.43;;;;;;;31.51;41.13;98721.69;5011629;28;20051;-59
2022/08/25 06:36:11;;;;;;;6.30;4.57;;;;;;;31.95;40.99;98726.84;5014781;28;20073;-59
2022/08/25 06:38:36;;;;;;;8.77;4.43;;;;;;;32.66;39.30;98728.38;5016922;28;20021;-60
2022/08/25 06:41:04;;;;;;;5.28;4.43;;;;;;;33.04;39.34;98729.97;4999925;28;20029;-60
2022/08/25 06:43:29;;;;;;;9.43;4.68;;;;;;;34.40;36.74;98734.53;5009485;28;20033;-60
2022/08/25 06:45:55;;;;;;;7.32;4.57;;;;;;;35.06;35.38;98727.25;5008392;28;20032;-60
2022/08/25 06:48:22;;;;;;;6.63;4.57;;;;;;;36.10;33.77;98731.31;5007094;28;20120;-63
2022/08/25 06:50:48;;;;;;;5.07;4.07;;;;;;;36.37;33.33;98726.56;5010157;28;20025;-60
2022/08/25 06:53:13;;;;;;;4.88;3.72;;;;;;;36.24;33.20;98728.75;5010343;28;20383;-60
2022/08/25 06:55:39;;;;;;;5.38;4.35;;;;;;;35.93;33.43;98729.81;5010518;28;20056;-60
2022/08/25 06:58:04;;;;;;;7.03;4.50;;;;;;;36.73;32.64;98719.47;5010424;28;20048;-60
2022/08/25 07:00:30;;;;;;;5.15;4.00;;;;;;;36.76;32.50;98737.63;5004210;28;20084;-60
2022/08/25 07:02:56;;;;;;;7.45;4.95;;;;;;;35.00;34.92;98734.31;5009842;28;20036;-60
2022/08/25 07:05:22;;;;;;;6.03;4.25;;;;;;;37.87;30.84;98733.44;5014023;28;20036;-60
2022/08/25 07:07:48;;;;;;;4.85;3.60;;;;;;;38.37;31.29;98728.25;5008610;28;20022;-60
2022/08/25 07:10:13;;;;;;;4.88;4.28;;;;;;;38.90;29.73;98732.69;5011329;28;20037;-60
2022/08/25 07:12:39;;;;;;;6.70;4.40;;;;;;;37.33;31.14;98729.16;5013458;28;20033;-60
2022/08/25 07:15:05;;;;;;;5.32;3.78;;;;;;;38.70;30.15;98720.81;5008284;28;20033;-60
2022/08/25 07:17:31;;;;;;;7.72;4.30;;;;;;;37.90;31.22;98715.69;5005545;28;20040;-60
2022/08/25 07:19:56;;;;;;;4.35;3.63;;;;;;;37.92;31.01;98713.31;5004888;28;20388;-60
2022/08/25 07:22:22;;;;;;;6.35;4.20;;;;;;;38.67;29.97;98715.97;5008008;28;20090;-60
2022/08/25 07:24:47;;;;;;;6.10;3.92;;;;;;;38.69;30.05;98711.53;5009878;28;20029;-60
2022/08/25 07:27:13;;;;;;;4.68;3.50;;;;;;;38.33;30.20;98708.44;5011493;28;20080;-60
2022/08/25 07:29:38;;;;;;;6.80;4.28;;;;;;;39.57;28.91;98703.91;4997633;28;20112;-61
2022/08/25 07:32:05;;;;;;;5.25;3.67;;;;;;;39.00;29.18;98704.47;5004837;28;20086;-60
2022/08/25 07:37:18;;;;;;;5.43;3.75;;;;;;;38.19;30.36;98705.50;5025265;28;20577;-59
2022/08/25 07:39:44;;;;;;;4.13;3.28;;;;;;;38.02;30.41;98709.81;5000492;28;20377;-59
2022/08/25 07:42:12;;;;;;;4.53;3.65;;;;;;;38.01;30.55;98698.88;5005068;28;20037;-60
2022/08/25 07:44:37;;;;;;;7.45;3.85;;;;;;;37.45;31.09;98714.81;5021109;28;20025;-60
2022/08/25 07:47:03;;;;;;;4.82;3.67;;;;;;;37.72;30.93;98707.84;5007546;28;20511;-60
2022/08/25 07:49:29;;;;;;;4.15;3.25;;;;;;;38.85;29.60;98696.28;5010611;28;20029;-59
2022/08/25 07:51:54;;;;;;;6.20;3.20;;;;;;;38.75;29.65;98704.31;5001221;28;20033;-60
2022/08/25 07:54:21;;;;;;;4.32;3.30;;;;;;;38.33;29.93;98699.13;5002326;28;20129;-60
2022/08/25 07:56:47;;;;;;;6.85;3.45;;;;;;;37.72;30.30;98702.22;5010767;28;20091;-60
2022/08/25 07:59:12;;;;;;;4.90;3.58;;;;;;;37.65;30.24;98698.50;5007583;28;20305;-59
2022/08/25 08:01:38;;;;;;;16.17;4.32;;;;;;;38.12;29.75;98709.09;5007877;28;20639;-60
2022/08/25 08:04:04;;;;;;;4.43;3.30;;;;;;;39.39;28.00;98703.84;5004963;28;20033;-59
2022/08/25 08:06:29;;;;;;;5.43;3.20;;;;;;;39.52;28.26;98714.81;5001558;28;20056;-60
2022/08/25 08:08:55;;;;;;;6.97;3.13;;;;;;;38.06;29.54;98713.47;5001022;28;20034;-62
2022/08/25 08:11:27;;;;;;;4.18;2.97;;;;;;;38.40;29.02;98710.50;5008168;28;20428;-60
2022/08/25 08:13:55;;;;;;;5.82;3.20;;;;;;;38.36;28.86;98716.13;5005382;28;20184;-60
2022/08/25 08:16:22;;;;;;;6.93;3.10;;;;;;;39.19;28.49;98700.50;5013902;28;20025;-60
2022/08/25 08:18:48;;;;;;;5.15;3.15;;;;;;;39.15;28.67;98694.03;5004836;28;20025;-60
2022/08/25 08:21:26;;;;;;;8.07;3.35;;;;;;;38.75;28.77;98700.66;5002469;28;21633;-60
2022/08/25 08:23:53;;;;;;;4.28;3.00;;;;;;;39.21;28.36;98698.09;5018129;28;20040;-60
2022/08/25 08:26:19;;;;;;;8.40;3.17;;;;;;;39.26;28.47;98696.91;5004062;28;20029;-59
2022/08/25 08:28:45;;;;;;;4.95;3.50;;;;;;;38.22;29.69;98695.44;5007343;28;20444;-59
2022/08/25 08:31:10;;;;;;;4.40;3.25;;;;;;;38.88;28.69;98690.66;5008239;28;20037;-60
2022/08/25 08:33:36;;;;;;;4.88;3.33;;;;;;;40.05;27.40;98694.28;5007251;28;20055;-60
2022/08/25 08:36:11;;;;;;;4.82;3.08;;;;;;;39.60;27.37;98682.47;5001903;28;20025;-60
2022/08/25 08:38:38;;;;;;;4.55;3.50;;;;;;;39.10;28.44;98687.94;5013155;28;20088;-59
2022/08/25 08:44:45;;;;;;;4.15;3.38;;;;;;;37.88;30.11;98690.66;5018900;28;20041;-59
2022/08/25 08:47:41;;;;;;;7.15;3.42;;;;;;;37.46;29.92;98686.19;5016034;28;20026;-59
2022/08/25 08:50:25;;;;;;;4.25;3.47;;;;;;;39.12;28.14;98675.03;5002569;28;20140;-59
2022/08/25 08:52:50;;;;;;;3.33;2.78;;;;;;;40.53;26.42;98680.50;5013085;28;20411;-60
2022/08/25 08:55:42;;;;;;;4.20;3.05;;;;;;;39.73;27.68;98680.06;5002343;28;20040;-60
2022/08/25 08:58:24;;;;;;;4.43;3.28;;;;;;;39.52;27.96;98667.47;5025479;28;20056;-60
2022/08/25 09:00:57;;;;;;;6.70;3.40;;;;;;;38.64;28.43;98669.50;5004202;28;20094;-61
2022/08/25 09:03:25;;;;;;;3.70;3.28;;;;;;;39.20;27.84;98661.72;5008894;28;20100;-60
2022/08/25 09:05:55;;;;;;;4.00;3.25;;;;;;;38.43;29.23;98660.88;5005781;28;20084;-60
2022/08/25 09:08:21;;;;;;;5.65;3.42;;;;;;;40.04;27.04;98659.47;5003627;28;20115;-61
2022/08/25 09:10:52;;;;;;;10.90;3.30;;;;;;;39.21;28.16;98661.31;5005535;28;20390;-61
2022/08/25 09:13:31;;;;;;;4.68;2.75;;;;;;;40.14;27.04;98665.53;5001218;28;20775;-60
2022/08/25 09:16:53;;;;;;;4.28;3.15;;;;;;;38.77;28.47;98653.00;5006150;28;20044;-60
2022/08/25 09:20:05;;;;;;;5.03;2.90;;;;;;;39.35;28.14;98660.56;4999039;28;20033;-60
2022/08/25 09:23:06;;;;;;;3.75;2.97;;;;;;;40.61;26.50;98650.13;4962840;28;20401;-61
2022/08/25 09:26:01;;;;;;;3.67;2.70;;;;;;;40.52;25.79;98650.53;4995623;28;20025;-60
2022/08/25 09:28:53;;;;;;;4.15;2.85;;;;;;;40.28;26.06;98642.88;4988150;28;20469;-61
2022/08/25 09:31:24;;;;;;;3.13;2.40;;;;;;;41.20;25.69;98645.88;5004674;28;20690;-60
2022/08/25 09:33:54;;;;;;;2.78;2.47;;;;;;;41.65;24.59;98634.66;5002473;28;20458;-61
2022/08/25 09:36:19;;;;;;;3.10;2.55;;;;;;;39.74;26.26;98636.34;5005313;28;20524;-61
2022/08/25 09:38:46;;;;;;;3.15;2.70;;;;;;;39.06;27.33;98639.00;5010363;28;20055;-60
2022/08/25 09:41:15;;;;;;;4.90;2.88;;;;;;;40.17;26.06;98633.56;5007715;28;20041;-60
2022/08/25 09:43:51;;;;;;;3.92;2.60;;;;;;;39.26;26.85;98643.13;5020413;28;20028;-60
2022/08/25 09:46:24;;;;;;;3.03;2.70;;;;;;;38.85;27.42;98640.50;5003650;28;20036;-60
2022/08/25 09:48:54;;;;;;;3.28;2.50;;;;;;;39.86;25.86;98642.47;5001998;28;20041;-60
2022/08/25 09:51:35;;;;;;;4.25;2.70;;;;;;;39.09;27.15;98627.69;5004692;28;20113;-61
2022/08/25 09:54:12;;;;;;;8.23;2.92;;;;;;;38.15;28.07;98628.38;5019171;28;20463;-60
2022/08/25 09:57:00;;;;;;;4.47;2.87;;;;;;;38.94;27.52;98620.41;4998454;28;20068;-61
2022/08/25 09:59:34;;;;;;;4.25;2.53;;;;;;;39.63;26.43;98625.81;5013457;28;20298;-60
2022/08/25 10:02:24;;;;;;;3.35;2.78;;;;;;;39.80;25.93;98620.59;5026536;28;20423;-60
2022/08/25 10:04:51;;;;;;;3.28;2.40;;;;;;;41.75;24.06;98611.06;4998337;28;20041;-61
2022/08/25 10:07:22;;;;;;;2.63;2.10;;;;;;;40.16;24.86;98604.38;5012270;28;20033;-61
2022/08/25 10:10:02;;;;;;;2.78;2.08;;;;;;;40.56;24.24;98610.81;5010745;28;20107;-61
2022/08/25 10:12:40;;;;;;;2.90;2.30;;;;;;;40.97;24.27;98604.59;5023242;28;20029;-61
2022/08/25 10:15:18;;;;;;;3.40;2.22;;;;;;;39.90;24.93;98602.00;5006742;28;20428;-61
2022/08/25 10:17:44;;;;;;;;;;;;;;;41.73;22.88;98596.44;5011673;28;20037;-61
2022/08/25 10:20:09;;;;;;;3.10;1.92;;;;;;;41.05;24.55;98603.34;5010184;28;19921;-61
2022/08/25 10:22:36;;;;;;;2.67;2.20;;;;;;;40.17;24.44;98603.19;5009144;28;20048;-62
2022/08/25 10:25:07;;;;;;;3.92;2.22;;;;;;;40.95;24.19;98588.00;5011260;28;20071;-61
2022/08/25 10:27:57;;;;;;;3.50;2.15;;;;;;;42.15;23.21;98583.91;5009496;28;20120;-61
2022/08/25 10:30:35;;;;;;;3.03;2.17;;;;;;;43.01;21.53;98582.13;5009419;28;20029;-62
2022/08/25 10:33:11;;;;;;;2.90;2.30;;;;;;;40.49;24.62;98577.63;5010054;28;20029;-61
2022/08/25 10:36:06;;;;;;;3.50;2.55;;;;;;;39.70;25.33;98576.88;5002201;28;20099;-61
2022/08/25 10:38:42;;;;;;;3.25;2.63;;;;;;;39.49;25.38;98574.06;5011125;28;20167;-61
2022/08/25 10:41:17;;;;;;;3.50;2.28;;;;;;;35.91;29.32;98574.50;5011116;28;20034;-61
2022/08/25 10:45:41;;;;;;;5.97;2.78;;;;;;;33.73;32.51;98570.81;5007489;28;20068;-61
2022/08/25 10:47:09;;;;;;;4.50;2.20;;;;;;;33.35;33.23;98566.63;5000029;28;20037;-60
2022/08/25 10:49:47;;;;;;;4.00;2.75;;;;;;;33.15;33.57;98562.91;5007746;28;20033;-61
2022/08/25 10:52:37;;;;;;;3.03;2.60;;;;;;;33.89;32.85;98548.34;5021782;28;20032;-61
2022/08/25 10:55:18;;;;;;;3.45;2.20;;;;;;;36.60;28.91;98555.44;5006352;28;20026;-61
2022/08/25 10:58:18;;;;;;;5.45;2.72;;;;;;;36.31;29.36;98559.81;5008560;28;20052;-60
2022/08/25 11:01:00;;;;;;;4.68;2.53;;;;;;;37.40;28.07;98552.28;5010180;28;20033;-61
2022/08/25 11:04:01;;;;;;;2.88;2.30;;;;;;;36.76;28.94;98545.91;5016779;28;20037;-60
2022/08/25 11:06:48;;;;;;;3.35;2.38;;;;;;;36.43;29.20;98545.50;5002332;28;20136;-61
2022/08/25 11:09:19;;;;;;;5.13;2.63;;;;;;;37.81;27.40;98540.13;5022627;28;20026;-61
2022/08/25 11:11:54;;;;;;;2.83;2.20;;;;;;;39.11;26.36;98534.75;5012970;28;20393;-61
2022/08/25 11:14:29;;;;;;;4.40;2.28;;;;;;;40.02;25.23;98542.88;5002283;28;20660;-61
2022/08/25 11:17:00;;;;;;;5.32;2.20;;;;;;;40.61;24.92;98539.50;5007188;28;20040;-61
2022/08/25 11:19:44;;;;;;;3.10;2.30;;;;;;;41.86;23.14;98542.75;5010480;28;20033;-61
2022/08/25 11:22:31;;;;;;;5.57;2.40;;;;;;;39.85;25.12;98536.03;5011491;28;20087;-60
2022/08/25 11:25:21;;;;;;;4.13;2.63;;;;;;;38.65;26.23;98535.41;5011135;28;20021;-60
2022/08/25 11:27:51;;;;;;;3.72;2.30;;;;;;;38.68;26.88;98536.63;5010892;28;20461;-60
2022/08/25 11:30:18;;;;;;;2.38;2.08;;;;;;;40.36;24.75;98521.78;5013844;28;20076;-60
2022/08/25 11:32:47;;;;;;;3.88;2.20;;;;;;;41.22;23.75;98516.50;5007458;28;20029;-60
2022/08/25 11:35:16;;;;;;;3.90;2.30;;;;;;;40.73;23.79;98505.00;5026590;28;20040;-61
2022/08/25 11:37:58;;;;;;;5.13;2.22;;;;;;;39.62;25.33;98512.97;5012474;28;20428;-61
2022/08/25 11:40:40;;;;;;;3.33;2.22;;;;;;;39.23;25.70;98508.88;5019509;22;20145;-63
2022/08/25 11:43:33;;;;;;;2.83;2.03;;;;;;;37.07;28.36;98510.84;5013230;28;20024;-62
2022/08/25 11:46:15;;;;;;;6.57;2.28;;;;;;;35.83;30.00;98506.00;5027923;28;20052;-62
2022/08/25 11:48:49;;;;;;;3.42;2.50;;;;;;;35.54;30.88;98497.09;5019630;28;20029;-62
2022/08/25 11:51:27;;;;;;;3.08;2.25;;;;;;;36.38;29.42;98503.56;5026824;28;20114;-62
2022/08/25 11:54:15;;;;;;;4.10;2.70;;;;;;;35.82;29.97;98504.41;5019283;28;20032;-62